createdAt,value
2019-01-31T00:02:19.788Z,72.57
2019-01-31T00:05:46.750Z,74.90
2019-01-31T00:08:46.382Z,71.10
2019-01-31T00:12:02.831Z,79.00
2019-01-31T00:15:07.555Z,83.90
2019-01-31T00:18:30.203Z,70.60
2019-01-31T00:21:44.705Z,75.53
2019-01-31T00:24:42.738Z,65.57
2019-01-31T00:28:21.335Z,69.63
2019-01-31T00:31:44.398Z,68.97
2019-01-31T00:34:51.244Z,71.53
2019-01-31T00:38:25.062Z,63.70
2019-01-31T00:41:29.278Z,64.80
2019-01-31T00:45:22.082Z,68.90
2019-01-31T00:48:59.961Z,61.47
2019-01-31T00:52:19.670Z,73.07
2019-01-31T00:55:43.429Z,68.77
2019-01-31T00:58:43.193Z,70.47
2019-01-31T01:02:14.665Z,70.77
2019-01-31T01:05:47.147Z,68.70
2019-01-31T01:09:33.598Z,68.10
2019-01-31T01:13:20.518Z,79.90
2019-01-31T01:16:43.210Z,74.57
2019-01-31T01:20:27.127Z,82.53
2019-01-31T01:23:49.828Z,80.90
2019-01-31T01:26:44.011Z,72.70
2019-01-31T01:29:46.855Z,80.13
2019-01-31T01:33:02.765Z,76.40
2019-01-31T01:36:37.078Z,70.93
2019-01-31T01:40:02.188Z,76.70
2019-01-31T01:43:13.864Z,76.23
2019-01-31T01:46:50.899Z,74.80
2019-01-31T01:49:40.411Z,74.77
2019-01-31T01:53:24.031Z,80.70
2019-01-31T01:56:40.537Z,81.97
2019-01-31T02:00:20.096Z,69.77
2019-01-31T02:03:32.943Z,80.03
2019-01-31T02:07:12.191Z,79.67
2019-01-31T02:10:36.132Z,81.07
2019-01-31T02:14:11.451Z,82.70
2019-01-31T02:17:07.029Z,75.03
2019-01-31T02:20:40.681Z,85.47
2019-01-31T02:24:18.695Z,88.97
2019-01-31T02:27:55.534Z,80.37
2019-01-31T02:31:05.003Z,79.67
2019-01-31T02:34:38.182Z,85.30
2019-01-31T02:38:03.994Z,83.80
2019-01-31T02:40:59.372Z,78.87
2019-01-31T02:44:18.947Z,82.73
2019-01-31T02:47:54.055Z,77.87
2019-01-31T02:51:33.580Z,83.70
2019-01-31T02:54:33.044Z,89.63
2019-01-31T02:58:02.252Z,84.67
2019-01-31T03:01:21.748Z,90.73
2019-01-31T03:05:10.946Z,82.87
2019-01-31T03:08:26.124Z,89.97
2019-01-31T03:11:54.783Z,86.50
2019-01-31T03:14:39.693Z,86.63
2019-01-31T03:18:04.431Z,88.53
2019-01-31T03:21:03.707Z,89.03
2019-01-31T03:24:43.830Z,96.93
2019-01-31T03:27:54.637Z,95.60
2019-01-31T03:31:37.819Z,90.43
2019-01-31T03:34:38.187Z,97.70
2019-01-31T03:37:57.627Z,90.50
2019-01-31T03:40:40.058Z,92.47
2019-01-31T03:44:14.101Z,100.03
2019-01-31T03:48:04.199Z,96.33
2019-01-31T03:51:29.232Z,101.03
2019-01-31T03:55:16.737Z,92.90
2019-01-31T03:58:25.576Z,98.73
2019-01-31T04:02:08.125Z,109.67
2019-01-31T04:05:14.808Z,99.93
2019-01-31T04:07:47.223Z,94.03
2019-01-31T04:10:19.696Z,102.27
2019-01-31T04:12:52.157Z,104.00
2019-01-31T04:15:24.626Z,105.83
2019-01-31T04:17:57.200Z,101.20
2019-01-31T04:20:29.701Z,99.57
2019-01-31T04:23:02.052Z,105.37
2019-01-31T04:25:34.449Z,96.80
2019-01-31T04:28:07.168Z,97.73
2019-01-31T04:30:39.787Z,97.40
2019-01-31T04:33:12.180Z,103.33
2019-01-31T04:35:44.727Z,104.30
2019-01-31T04:38:19.793Z,99.37
2019-01-31T04:40:51.190Z,99.97
2019-01-31T04:43:23.791Z,99.73
2019-01-31T04:45:56.292Z,89.57
2019-01-31T04:48:28.896Z,101.47
2019-01-31T04:51:01.466Z,99.80
2019-01-31T04:53:33.955Z,89.53
2019-01-31T04:56:06.548Z,92.90
2019-01-31T04:58:39.369Z,100.87
2019-01-31T05:01:12.051Z,108.27
2019-01-31T05:03:44.678Z,100.63
2019-01-31T05:06:17.867Z,105.07
2019-01-31T05:08:50.342Z,100.73
2019-01-31T05:11:23.095Z,101.63
2019-01-31T05:13:55.731Z,106.00
2019-01-31T05:16:28.508Z,100.53
2019-01-31T05:19:00.941Z,95.20
2019-01-31T05:21:33.329Z,103.80
2019-01-31T05:24:05.755Z,98.97
2019-01-31T05:26:38.316Z,107.33
2019-01-31T05:29:10.773Z,92.90
2019-01-31T05:31:43.317Z,98.23
2019-01-31T05:34:15.847Z,94.00
2019-01-31T05:36:48.631Z,94.67
2019-01-31T05:39:21.201Z,97.13
2019-01-31T05:41:53.699Z,103.07
2019-01-31T05:44:26.272Z,97.30
2019-01-31T05:46:58.646Z,102.57
2019-01-31T05:49:31.205Z,102.87
2019-01-31T05:52:03.899Z,103.03
2019-01-31T05:54:36.417Z,101.50
2019-01-31T05:57:08.963Z,97.53
2019-01-31T05:59:41.949Z,108.67
2019-01-31T06:02:14.734Z,100.23
2019-01-31T06:04:47.107Z,97.87
2019-01-31T06:07:19.652Z,91.83
2019-01-31T06:09:52.029Z,93.17
2019-01-31T06:12:26.207Z,101.90
2019-01-31T06:14:58.478Z,93.67
2019-01-31T06:17:31.093Z,98.37
2019-01-31T06:20:03.454Z,99.63
2019-01-31T06:22:36.381Z,101.37
2019-01-31T06:25:09.163Z,91.27
2019-01-31T06:27:41.611Z,102.33
2019-01-31T06:30:16.135Z,101.00
2019-01-31T06:32:49.199Z,100.63
2019-01-31T06:35:21.676Z,94.53
2019-01-31T06:37:53.718Z,104.93
2019-01-31T06:40:26.243Z,115.97
2019-01-31T06:42:58.886Z,113.20
2019-01-31T06:45:33.007Z,120.07
2019-01-31T06:48:06.097Z,107.43
2019-01-31T06:50:38.628Z,134.70
2019-01-31T06:53:11.007Z,146.93
2019-01-31T06:55:43.464Z,128.07
2019-01-31T06:58:16.168Z,119.17
2019-01-31T07:00:48.706Z,114.70
2019-01-31T07:03:21.049Z,119.27
2019-01-31T07:05:53.641Z,129.30
2019-01-31T07:08:26.086Z,115.83
2019-01-31T07:10:58.637Z,124.80
2019-01-31T07:13:33.859Z,125.17
2019-01-31T07:16:05.359Z,115.77
2019-01-31T07:18:38.199Z,122.70
2019-01-31T07:21:10.987Z,125.97
2019-01-31T07:23:45.905Z,140.43
2019-01-31T07:26:17.573Z,124.00
2019-01-31T07:28:50.088Z,120.97
2019-01-31T14:44:37.584Z,52.03
2019-01-31T14:47:09.684Z,51.83
2019-01-31T14:49:41.708Z,53.50
2019-01-31T14:52:13.825Z,45.40
2019-01-31T14:54:45.942Z,55.57
2019-01-31T14:57:18.009Z,60.07
2019-01-31T14:59:50.289Z,60.20
2019-01-31T15:02:22.401Z,58.30
2019-01-31T15:04:54.467Z,60.50
2019-01-31T15:07:26.782Z,59.27
2019-01-31T15:09:58.855Z,66.50
2019-01-31T15:12:31.379Z,68.57
2019-01-31T15:15:03.446Z,72.37
2019-01-31T15:17:35.520Z,63.03
2019-01-31T15:20:37.612Z,70.37
2019-01-31T15:23:06.003Z,70.90
2019-01-31T15:25:39.634Z,67.23
2019-01-31T15:28:11.702Z,68.03
2019-01-31T15:30:44.039Z,75.33
2019-01-31T15:33:16.551Z,73.70
2019-01-31T15:35:48.694Z,68.63
2019-01-31T15:38:21.092Z,72.67
2019-01-31T15:40:53.504Z,64.53
2019-01-31T15:43:28.498Z,63.23
2019-01-31T15:46:00.497Z,71.17
2019-01-31T15:48:32.898Z,74.90
2019-01-31T15:51:05.241Z,73.47
2019-01-31T15:53:37.336Z,77.37
2019-01-31T15:56:10.702Z,72.53
2019-01-31T15:58:44.649Z,69.80
2019-01-31T16:01:17.123Z,70.90
2019-01-31T16:03:49.606Z,74.43
2019-01-31T16:06:23.919Z,76.97
2019-01-31T16:08:56.244Z,77.00
2019-01-31T16:11:28.506Z,75.57
2019-01-31T16:14:00.630Z,71.27
2019-01-31T16:16:32.782Z,72.27
2019-01-31T16:19:04.929Z,71.77
2019-01-31T16:21:38.520Z,83.50
2019-01-31T16:24:10.625Z,80.50
2019-01-31T16:26:42.727Z,80.40
2019-01-31T16:29:14.952Z,85.10
2019-01-31T16:31:47.128Z,78.07
2019-01-31T16:34:19.224Z,75.67
2019-01-31T16:36:51.270Z,74.83
2019-01-31T16:39:23.354Z,71.90
2019-01-31T16:41:55.794Z,66.80
2019-01-31T16:44:28.103Z,69.50
2019-01-31T16:47:01.340Z,62.87
2019-01-31T16:49:33.468Z,73.53
2019-01-31T16:52:06.070Z,68.03
2019-01-31T16:54:38.165Z,67.23
2019-01-31T16:57:10.368Z,66.27
2019-01-31T16:59:42.330Z,70.83
2019-01-31T17:02:14.464Z,63.47
2019-01-31T17:04:46.880Z,70.83
2019-01-31T17:07:19.344Z,68.23
2019-01-31T17:09:51.408Z,67.40
2019-01-31T17:12:23.645Z,77.40
2019-01-31T17:14:55.867Z,88.93
2019-01-31T17:17:28.087Z,81.13
2019-01-31T17:20:00.405Z,74.30
2019-01-31T17:22:32.830Z,75.70
2019-01-31T17:25:06.781Z,80.03
2019-01-31T17:27:38.850Z,84.77
2019-01-31T17:30:19.398Z,76.27
2019-01-31T17:32:51.500Z,75.63
2019-01-31T17:35:23.623Z,80.90
2019-01-31T17:37:55.641Z,80.67
2019-01-31T17:40:32.314Z,81.57
2019-01-31T17:43:05.038Z,83.10
2019-01-31T17:45:37.299Z,77.17
2019-01-31T17:48:12.379Z,75.00
2019-01-31T17:50:45.153Z,74.67
2019-01-31T17:53:18.496Z,78.30
2019-01-31T17:55:50.557Z,84.23
2019-01-31T17:58:22.662Z,73.87
2019-01-31T18:00:57.278Z,71.13
2019-01-31T18:03:30.139Z,76.83
2019-01-31T18:06:02.242Z,77.13
2019-01-31T18:08:34.212Z,73.03
2019-01-31T18:11:06.485Z,76.57
2019-01-31T18:13:38.669Z,85.03
2019-01-31T18:16:10.816Z,81.80
2019-01-31T18:18:42.885Z,105.13
2019-01-31T18:21:15.116Z,93.83
2019-01-31T18:23:47.124Z,82.90
2019-01-31T18:26:19.179Z,82.07
2019-01-31T18:28:51.649Z,92.93
2019-01-31T18:31:23.984Z,76.50
2019-01-31T18:33:56.349Z,81.80
2019-01-31T18:36:28.436Z,75.00
2019-01-31T18:39:01.403Z,66.03
2019-01-31T18:41:34.809Z,66.97
2019-01-31T18:44:07.307Z,71.23
2019-01-31T18:46:39.450Z,81.03
2019-01-31T18:49:11.556Z,74.33
2019-01-31T18:51:44.154Z,67.30
2019-01-31T18:54:19.806Z,70.53
2019-01-31T18:56:52.011Z,68.57
2019-01-31T18:59:24.409Z,75.00
2019-01-31T19:01:56.658Z,70.63
2019-01-31T19:04:28.877Z,68.30
2019-01-31T19:07:01.435Z,81.70
2019-01-31T19:09:33.673Z,69.97
2019-01-31T19:12:06.304Z,76.83
2019-01-31T19:14:38.339Z,80.63
2019-01-31T19:17:10.377Z,100.40
2019-01-31T19:19:42.444Z,84.77
2019-01-31T19:22:15.958Z,85.60
2019-01-31T19:24:48.010Z,95.27
2019-01-31T19:27:20.331Z,108.53
2019-01-31T19:29:52.884Z,90.43
2019-01-31T19:32:25.083Z,93.20
2019-01-31T19:34:57.190Z,87.60
2019-01-31T19:37:30.179Z,83.37
2019-01-31T19:40:02.862Z,82.13
2019-01-31T19:42:42.685Z,77.43
2019-01-31T19:45:38.069Z,81.17
2019-01-31T19:48:22.019Z,82.53
2019-01-31T19:50:54.584Z,85.10
2019-01-31T19:53:26.894Z,83.17
2019-01-31T19:56:00.663Z,84.63
2019-01-31T19:58:32.791Z,85.63
2019-01-31T20:01:05.164Z,93.13
2019-01-31T20:03:38.252Z,158.03
2019-01-31T20:06:10.621Z,96.07
2019-01-31T20:08:42.634Z,82.83
2019-01-31T20:11:14.652Z,86.87
2019-01-31T20:13:46.626Z,84.93
2019-01-31T20:16:28.564Z,83.50
2019-01-31T20:18:54.197Z,84.33
2019-01-31T20:21:38.411Z,84.93
2019-01-31T20:24:10.793Z,81.47
2019-01-31T20:26:42.962Z,85.30
2019-01-31T20:29:15.114Z,86.27
2019-01-31T20:31:47.217Z,83.23
2019-01-31T20:34:19.317Z,87.10
2019-01-31T20:36:51.565Z,92.37
2019-01-31T20:39:23.590Z,88.57
2019-01-31T20:41:55.628Z,89.73
2019-01-31T20:44:27.713Z,88.80
2019-01-31T20:46:59.771Z,102.27
2019-01-31T20:49:31.790Z,107.87
2019-01-31T20:52:03.911Z,87.43
2019-01-31T20:54:35.909Z,92.23
2019-01-31T20:57:08.155Z,110.27
2019-01-31T20:59:40.238Z,110.27
2019-01-31T21:02:12.360Z,108.83
2019-01-31T21:04:44.815Z,92.67
2019-01-31T21:07:16.828Z,89.87
2019-01-31T21:09:48.888Z,92.37
2019-01-31T21:12:23.776Z,85.93
2019-01-31T21:14:55.970Z,86.77
2019-01-31T21:17:28.222Z,88.07
2019-01-31T21:20:00.288Z,88.80
2019-01-31T21:22:32.453Z,83.57
2019-01-31T21:25:05.093Z,88.03
2019-01-31T21:27:37.323Z,87.80
2019-01-31T21:30:15.669Z,88.97
2019-01-31T21:32:47.960Z,90.77
2019-01-31T21:35:21.003Z,86.63
2019-01-31T21:37:53.586Z,88.57
2019-01-31T21:40:26.751Z,90.90
2019-01-31T21:43:00.124Z,89.00
2019-01-31T21:45:32.349Z,90.43
2019-01-31T21:48:04.944Z,92.50
2019-01-31T21:50:37.184Z,95.53
2019-01-31T21:53:10.342Z,90.70
2019-01-31T21:55:42.392Z,84.13
2019-01-31T21:58:14.438Z,82.73
2019-01-31T22:00:46.772Z,72.03
2019-01-31T22:03:18.941Z,79.60
2019-01-31T22:05:51.120Z,78.30
2019-01-31T22:08:23.304Z,68.70
2019-01-31T22:10:55.438Z,67.63
2019-01-31T22:13:28.219Z,59.53
2019-01-31T22:16:00.522Z,61.10
2019-01-31T22:18:32.690Z,58.70
2019-01-31T22:21:04.757Z,60.77
2019-01-31T22:23:36.835Z,59.27
2019-01-31T22:26:08.952Z,63.50
2019-01-31T22:28:40.960Z,54.23
2019-01-31T22:31:12.949Z,56.10
2019-01-31T22:33:45.025Z,55.43
2019-01-31T22:36:17.013Z,58.43
2019-01-31T22:38:49.126Z,55.10
2019-01-31T22:41:21.229Z,57.50
2019-01-31T22:43:53.646Z,66.50
2019-01-31T22:46:26.928Z,59.17
2019-01-31T22:48:59.072Z,66.37
2019-01-31T22:51:31.220Z,63.50
2019-01-31T22:54:03.358Z,63.43
2019-01-31T22:56:35.346Z,63.27
2019-01-31T22:59:07.617Z,59.13
2019-01-31T23:01:43.632Z,62.43
2019-01-31T23:04:15.766Z,58.40
2019-01-31T23:06:48.595Z,58.17
2019-01-31T23:09:20.827Z,60.57
2019-01-31T23:11:52.779Z,55.97
2019-01-31T23:14:26.848Z,52.20
2019-01-31T23:16:59.408Z,57.67
2019-01-31T23:19:31.469Z,47.70
2019-01-31T23:22:03.498Z,51.93
2019-01-31T23:24:35.537Z,54.50
2019-01-31T23:27:07.697Z,52.00
2019-01-31T23:29:40.060Z,59.37
2019-01-31T23:32:12.178Z,47.23
2019-01-31T23:34:44.626Z,50.30
2019-01-31T23:37:16.889Z,50.00
2019-01-31T23:39:49.081Z,44.33
2019-01-31T23:42:21.198Z,47.83
2019-01-31T23:44:53.258Z,52.00
2019-01-31T23:47:25.693Z,52.30
2019-01-31T23:49:57.724Z,45.70
2019-01-31T23:52:29.770Z,49.87
2019-01-31T23:55:03.730Z,51.13
2019-01-31T23:57:35.875Z,48.87
